createdAt,value
2023-03-03T00:01:57.738Z,954.86
2023-03-03T00:06:59.143Z,954.91
2023-03-03T00:12:00.829Z,954.91
2023-03-03T00:17:02.673Z,954.9
2023-03-03T00:22:04.148Z,954.89
2023-03-03T00:27:05.760Z,954.91
2023-03-03T00:32:07.879Z,954.83
2023-03-03T00:37:09.126Z,954.82
2023-03-03T00:42:10.658Z,954.85
2023-03-03T00:47:12.118Z,954.9
2023-03-03T00:52:13.624Z,955
2023-03-03T00:57:15.501Z,955.06
2023-03-03T01:02:17.475Z,955.05
2023-03-03T01:07:19.363Z,955
2023-03-03T01:12:20.631Z,955.01
2023-03-03T01:17:22.669Z,954.99
2023-03-03T01:22:24.525Z,955.02
2023-03-03T01:27:25.624Z,954.98
2023-03-03T01:32:27.211Z,954.96
2023-03-03T01:37:28.428Z,954.95
2023-03-03T01:42:29.651Z,954.92
2023-03-03T01:47:31.309Z,954.91
2023-03-03T01:52:32.903Z,954.88
2023-03-03T01:57:34.864Z,954.85
2023-03-03T02:02:36.549Z,954.85
2023-03-03T02:07:37.725Z,954.87
2023-03-03T02:12:39.364Z,954.87
2023-03-03T02:17:41.132Z,954.85
2023-03-03T02:22:42.281Z,954.87
2023-03-03T02:27:43.973Z,954.9
2023-03-03T02:32:45.583Z,954.93
2023-03-03T02:37:47.445Z,954.92
2023-03-03T02:42:48.964Z,954.85
2023-03-03T02:47:50.205Z,954.87
2023-03-03T02:52:52.244Z,954.89
2023-03-03T02:57:53.803Z,954.8
2023-03-03T03:02:55.949Z,954.82
2023-03-03T03:07:57.604Z,954.82
2023-03-03T03:12:59.674Z,954.87
2023-03-03T03:18:01.393Z,954.83
2023-03-03T03:23:02.692Z,954.88
2023-03-03T03:28:14.180Z,954.86
2023-03-03T03:33:05.360Z,954.94
2023-03-03T03:38:07.516Z,954.94
2023-03-03T03:43:09.253Z,954.86
2023-03-03T03:48:20.872Z,954.95
2023-03-03T03:53:12.076Z,954.94
2023-03-03T03:58:13.579Z,954.95
2023-03-03T04:03:15.550Z,954.94
2023-03-03T04:08:17.128Z,954.94
2023-03-03T04:13:18.593Z,954.88
2023-03-03T04:18:20.621Z,954.88
2023-03-03T04:23:22.325Z,954.97
2023-03-03T04:28:24.109Z,954.97
2023-03-03T04:33:25.598Z,955.03
2023-03-03T04:38:27.778Z,955.01
2023-03-03T04:43:29.137Z,954.89
2023-03-03T04:48:30.513Z,954.88
2023-03-03T04:53:31.882Z,954.89
2023-03-03T04:58:33.413Z,954.92
2023-03-03T05:03:34.768Z,954.95
2023-03-03T05:08:36.046Z,954.89
2023-03-03T05:13:37.312Z,954.85
2023-03-03T05:18:38.555Z,954.9
2023-03-03T05:23:39.799Z,954.9
2023-03-03T05:28:41.254Z,954.91
2023-03-03T05:33:43.427Z,954.95
2023-03-03T05:38:44.873Z,955.03
2023-03-03T05:43:46.042Z,955.1
2023-03-03T05:48:47.599Z,955.09
2023-03-03T05:53:49.286Z,955.12
2023-03-03T05:58:50.667Z,955.17
2023-03-03T06:03:52.345Z,955.21
2023-03-03T06:08:55.481Z,955.24
2023-03-03T06:13:55.249Z,955.27
2023-03-03T06:18:57.204Z,955.36
2023-03-03T06:23:58.913Z,955.5
2023-03-03T06:29:10.350Z,955.49
2023-03-03T06:34:01.978Z,955.53
2023-03-03T06:39:13.085Z,955.54
2023-03-03T06:44:04.380Z,955.51
2023-03-03T06:44:10.729Z,955.51
2023-03-03T06:49:12.125Z,955.52
2023-03-03T06:54:14.201Z,955.62
2023-03-03T06:59:15.766Z,955.67
2023-03-03T07:04:17.089Z,955.68
2023-03-03T07:09:19.156Z,955.69
2023-03-03T07:14:21.245Z,955.72
2023-03-03T07:19:22.732Z,955.8
2023-03-03T07:24:24.337Z,955.88
2023-03-03T07:29:25.822Z,955.95
2023-03-03T07:34:27.913Z,956.01
2023-03-03T07:39:30.028Z,956.04
2023-03-03T07:44:32.161Z,956.09
2023-03-03T07:49:34.262Z,956.12
2023-03-03T07:54:35.957Z,956.13
2023-03-03T07:59:37.281Z,956.14
2023-03-03T08:09:40.834Z,956.22
2023-03-03T08:14:42.832Z,956.23
2023-03-03T08:19:44.076Z,956.21
2023-03-03T08:24:45.751Z,956.24
2023-03-03T08:54:55.344Z,956.29
2023-03-03T09:10:00.596Z,956.29
2023-03-03T09:20:03.617Z,956.28
2023-03-03T09:25:05.343Z,956.34
2023-03-03T09:30:07.476Z,956.41
2023-03-03T09:35:09.492Z,956.51
2023-03-03T09:40:11.260Z,956.57
2023-03-03T09:55:15.693Z,956.67
2023-03-03T10:00:17.302Z,956.71
2023-03-03T10:05:18.927Z,956.73
2023-03-03T10:10:21.043Z,956.67
2023-03-03T10:15:22.434Z,956.68
2023-03-03T10:20:23.623Z,956.66
2023-03-03T10:25:25.322Z,956.8
2023-03-03T10:30:38.884Z,956.73
2023-03-03T10:35:28.552Z,956.72
2023-03-03T10:40:30.294Z,956.72
2023-03-03T10:45:32.345Z,956.74
2023-03-03T10:50:34.227Z,956.72
2023-03-03T10:55:38.356Z,956.65
2023-03-03T11:00:37.845Z,956.75
2023-03-03T11:05:39.876Z,956.76
2023-03-03T11:10:41.954Z,956.81
2023-03-03T11:15:43.436Z,956.79
2023-03-03T11:20:45.419Z,956.74
2023-03-03T11:25:46.821Z,956.63
2023-03-03T11:30:49.040Z,956.66
2023-03-03T11:36:00.870Z,956.63
2023-03-03T11:40:52.056Z,956.53
2023-03-03T11:45:53.450Z,956.46
2023-03-03T11:50:54.908Z,956.47
2023-03-03T11:55:56.861Z,956.47
2023-03-03T12:00:59.026Z,956.42
2023-03-03T12:06:00.378Z,956.29
2023-03-03T12:11:02.089Z,956.28
2023-03-03T12:16:04.046Z,956.31
2023-03-03T12:21:06.064Z,956.24
2023-03-03T12:26:08.225Z,956.28
2023-03-03T12:31:09.833Z,956.23
2023-03-03T12:36:11.834Z,956.19
2023-03-03T12:41:14.254Z,956.13
2023-03-03T12:46:15.889Z,956.15
2023-03-03T12:51:17.234Z,956.1
2023-03-03T12:56:18.426Z,956.04
2023-03-03T13:01:20.609Z,956.08
2023-03-03T13:06:21.925Z,956.04
2023-03-03T13:11:24.008Z,956
2023-03-03T13:16:35.222Z,956.06
2023-03-03T13:21:27.344Z,956
2023-03-03T13:26:39.077Z,955.93
2023-03-03T13:31:30.476Z,955.88
2023-03-03T13:36:32.128Z,955.86
2023-03-03T13:41:33.599Z,955.91
2023-03-03T13:46:35.671Z,955.81
2023-03-03T13:51:36.922Z,955.87
2023-03-03T13:56:38.547Z,955.84
2023-03-03T14:01:40.168Z,955.74
2023-03-03T14:06:41.363Z,955.74
2023-03-03T14:11:42.679Z,955.67
2023-03-03T14:16:44.507Z,955.61
2023-03-03T14:21:45.709Z,955.56
2023-03-03T14:26:47.451Z,955.54
2023-03-03T14:31:49.108Z,955.51
2023-03-03T14:36:50.961Z,955.63
2023-03-03T14:42:00.977Z,955.6
2023-03-03T14:46:54.801Z,955.56
2023-03-03T14:51:57.721Z,955.63
2023-03-03T14:56:58.152Z,955.65
2023-03-03T15:01:59.712Z,955.66
2023-03-03T15:07:11.182Z,955.65
2023-03-03T15:12:02.490Z,955.64
2023-03-03T15:17:03.696Z,955.69
2023-03-03T15:22:05.209Z,955.71
2023-03-03T15:32:08.839Z,955.76
2023-03-03T15:37:10.127Z,955.76
2023-03-03T15:42:11.714Z,955.78
2023-03-03T15:47:13.660Z,955.75
2023-03-03T15:52:15.560Z,955.77
2023-03-03T16:07:26.337Z,955.78
2023-03-03T16:12:23.228Z,955.79
2023-03-03T16:17:25.275Z,955.77
2023-03-03T16:22:27.415Z,955.81
2023-03-03T16:27:29.028Z,955.95
2023-03-03T16:32:30.745Z,955.99
2023-03-03T16:37:32.616Z,956
2023-03-03T16:42:34.077Z,956.1
2023-03-03T16:47:36.060Z,956.09
2023-03-03T16:52:37.976Z,956.16
2023-03-03T16:57:39.482Z,956.21
2023-03-03T17:02:41.443Z,956.25
2023-03-03T17:07:43.534Z,956.33
2023-03-03T17:12:45.303Z,956.41
2023-03-03T17:17:46.665Z,956.39
2023-03-03T17:22:48.186Z,956.45
2023-03-03T17:27:50.002Z,956.52
2023-03-03T17:32:51.656Z,956.51
2023-03-03T17:38:03.114Z,956.59
2023-03-03T17:43:04.791Z,956.62
2023-03-03T17:47:56.807Z,956.63
2023-03-03T17:52:58.512Z,956.72
2023-03-03T17:58:00.434Z,956.82
2023-03-03T18:03:02.532Z,956.88
2023-03-03T18:08:03.920Z,956.88
2023-03-03T18:13:05.767Z,956.91
2023-03-03T18:18:07.539Z,956.96
2023-03-03T18:23:09.399Z,956.98
2023-03-03T18:28:22.175Z,957.05
2023-03-03T18:33:12.761Z,957.03
2023-03-03T18:38:14.041Z,957
2023-03-03T18:43:16.136Z,957.07
2023-03-03T18:53:18.645Z,957.17
2023-03-03T18:58:20.345Z,957.26
2023-03-03T19:03:21.637Z,957.29
2023-03-03T19:08:23.567Z,957.32
2023-03-03T19:13:25.186Z,957.36
2023-03-03T19:18:26.687Z,957.37
2023-03-03T19:23:28.190Z,957.34
2023-03-03T19:28:29.873Z,957.37
2023-03-03T19:33:31.130Z,957.39
2023-03-03T19:38:34.631Z,957.41
2023-03-03T19:43:44.608Z,957.4
2023-03-03T19:48:35.861Z,957.41
2023-03-03T19:53:37.092Z,957.47
2023-03-03T19:58:38.437Z,957.46
2023-03-03T20:03:41.671Z,957.45
2023-03-03T20:08:41.150Z,957.43
2023-03-03T20:13:42.348Z,957.46
2023-03-03T20:18:44.430Z,957.45
2023-03-03T20:23:46.270Z,957.46
2023-03-03T20:28:48.217Z,957.47
2023-03-03T20:33:49.950Z,957.54
2023-03-03T20:38:51.934Z,957.53
2023-03-03T20:43:53.662Z,957.48
2023-03-03T20:48:57.722Z,957.55
2023-03-03T20:53:56.786Z,957.56
2023-03-03T20:58:58.316Z,957.6
2023-03-03T21:04:00.428Z,957.66
2023-03-03T21:09:01.886Z,957.61
2023-03-03T21:14:03.956Z,957.64
2023-03-03T21:19:05.566Z,957.64
2023-03-03T21:24:07.485Z,957.65
2023-03-03T21:29:08.774Z,957.63
2023-03-03T21:34:10.283Z,957.69
2023-03-03T21:39:12.058Z,957.7
2023-03-03T21:44:13.267Z,957.76
2023-03-03T21:49:14.617Z,957.73
2023-03-03T21:54:16.025Z,957.74
2023-03-03T21:59:26.361Z,957.77
2023-03-03T22:04:19.168Z,957.7
2023-03-03T22:09:20.513Z,957.71
2023-03-03T22:14:22.050Z,957.73
2023-03-03T22:19:23.881Z,957.71
2023-03-03T22:24:25.499Z,957.79
2023-03-03T22:29:35.225Z,957.79
2023-03-03T22:34:29.149Z,957.77
2023-03-03T22:39:30.988Z,957.76
2023-03-03T22:44:32.658Z,957.75
2023-03-03T22:49:34.695Z,957.77
2023-03-03T22:54:36.581Z,957.77
2023-03-03T22:59:38.709Z,957.71
2023-03-03T23:14:43.670Z,957.72
2023-03-03T23:19:45.321Z,957.75
